sensor_id;sensor_type;location;lat;lon;timestamp;temperature;humidity
6792;DHT22;3433;48.730;9.108;2023-03-21T00:02:24;11.60;97.70
6792;DHT22;3433;48.730;9.108;2023-03-21T00:04:53;11.50;97.70
6792;DHT22;3433;48.730;9.108;2023-03-21T00:07:20;11.50;97.70
6792;DHT22;3433;48.730;9.108;2023-03-21T00:09:47;11.50;97.70
6792;DHT22;3433;48.730;9.108;2023-03-21T00:12:14;11.50;97.70
6792;DHT22;3433;48.730;9.108;2023-03-21T00:14:42;11.60;97.80
6792;DHT22;3433;48.730;9.108;2023-03-21T00:17:09;11.50;97.70
6792;DHT22;3433;48.730;9.108;2023-03-21T00:19:39;11.60;97.80
6792;DHT22;3433;48.730;9.108;2023-03-21T00:22:07;11.60;97.80
6792;DHT22;3433;48.730;9.108;2023-03-21T00:24:34;11.50;97.80
6792;DHT22;3433;48.730;9.108;2023-03-21T00:27:02;11.50;97.80
6792;DHT22;3433;48.730;9.108;2023-03-21T00:29:29;11.50;97.80
6792;DHT22;3433;48.730;9.108;2023-03-21T00:31:56;11.50;97.80
6792;DHT22;3433;48.730;9.108;2023-03-21T00:34:23;11.50;97.90
6792;DHT22;3433;48.730;9.108;2023-03-21T00:36:50;11.50;97.90
6792;DHT22;3433;48.730;9.108;2023-03-21T00:39:18;11.50;98.00
6792;DHT22;3433;48.730;9.108;2023-03-21T00:41:45;11.50;98.10
6792;DHT22;3433;48.730;9.108;2023-03-21T00:44:12;11.50;98.10
6792;DHT22;3433;48.730;9.108;2023-03-21T00:46:40;11.50;98.10
6792;DHT22;3433;48.730;9.108;2023-03-21T00:49:07;11.50;98.10
6792;DHT22;3433;48.730;9.108;2023-03-21T00:51:34;11.50;98.10
6792;DHT22;3433;48.730;9.108;2023-03-21T00:54:01;11.50;98.10
6792;DHT22;3433;48.730;9.108;2023-03-21T00:56:31;11.50;98.10
6792;DHT22;3433;48.730;9.108;2023-03-21T00:58:58;11.50;98.10
6792;DHT22;3433;48.730;9.108;2023-03-21T01:01:25;11.50;98.20
6792;DHT22;3433;48.730;9.108;2023-03-21T01:03:56;11.50;98.10
6792;DHT22;3433;48.730;9.108;2023-03-21T01:06:29;11.50;98.20
6792;DHT22;3433;48.730;9.108;2023-03-21T01:08:56;11.50;98.20
6792;DHT22;3433;48.730;9.108;2023-03-21T01:11:26;11.50;98.10
6792;DHT22;3433;48.730;9.108;2023-03-21T01:13:55;11.50;98.10
6792;DHT22;3433;48.730;9.108;2023-03-21T01:16:22;11.40;98.10
6792;DHT22;3433;48.730;9.108;2023-03-21T01:18:49;11.50;98.30
6792;DHT22;3433;48.730;9.108;2023-03-21T01:21:16;11.50;98.20
6792;DHT22;3433;48.730;9.108;2023-03-21T01:23:44;11.40;98.30
6792;DHT22;3433;48.730;9.108;2023-03-21T01:26:12;11.40;98.20
6792;DHT22;3433;48.730;9.108;2023-03-21T01:28:40;11.40;98.20
6792;DHT22;3433;48.730;9.108;2023-03-21T01:31:10;11.40;98.30
6792;DHT22;3433;48.730;9.108;2023-03-21T01:33:38;11.40;98.30
6792;DHT22;3433;48.730;9.108;2023-03-21T01:36:06;11.40;98.30
6792;DHT22;3433;48.730;9.108;2023-03-21T01:38:33;11.40;98.30
6792;DHT22;3433;48.730;9.108;2023-03-21T01:41:00;11.40;98.30
6792;DHT22;3433;48.730;9.108;2023-03-21T01:43:28;11.40;98.40
6792;DHT22;3433;48.730;9.108;2023-03-21T01:49:10;11.30;98.50
6792;DHT22;3433;48.730;9.108;2023-03-21T01:51:41;11.30;98.50
6792;DHT22;3433;48.730;9.108;2023-03-21T01:54:14;11.30;98.40
6792;DHT22;3433;48.730;9.108;2023-03-21T01:56:44;11.30;98.40
6792;DHT22;3433;48.730;9.108;2023-03-21T01:59:17;11.30;98.30
6792;DHT22;3433;48.730;9.108;2023-03-21T02:01:48;11.30;98.40
6792;DHT22;3433;48.730;9.108;2023-03-21T02:04:18;11.30;98.50
6792;DHT22;3433;48.730;9.108;2023-03-21T02:06:56;11.30;98.50
6792;DHT22;3433;48.730;9.108;2023-03-21T02:09:27;11.30;98.50
6792;DHT22;3433;48.730;9.108;2023-03-21T02:11:56;11.30;98.50
6792;DHT22;3433;48.730;9.108;2023-03-21T02:14:23;11.30;98.50
6792;DHT22;3433;48.730;9.108;2023-03-21T02:16:56;11.30;98.50
6792;DHT22;3433;48.730;9.108;2023-03-21T02:28:42;11.30;98.80
6792;DHT22;3433;48.730;9.108;2023-03-21T02:31:33;11.30;98.50
6792;DHT22;3433;48.730;9.108;2023-03-21T02:34:22;11.20;98.60
6792;DHT22;3433;48.730;9.108;2023-03-21T02:37:14;11.10;98.60
6792;DHT22;3433;48.730;9.108;2023-03-21T02:39:59;11.20;98.60
6792;DHT22;3433;48.730;9.108;2023-03-21T02:42:29;11.20;98.60
6792;DHT22;3433;48.730;9.108;2023-03-21T02:45:01;11.10;98.70
6792;DHT22;3433;48.730;9.108;2023-03-21T02:47:33;11.20;98.80
6792;DHT22;3433;48.730;9.108;2023-03-21T02:50:06;11.10;98.60
6792;DHT22;3433;48.730;9.108;2023-03-21T02:52:37;11.10;98.50
6792;DHT22;3433;48.730;9.108;2023-03-21T02:55:08;11.10;98.50
6792;DHT22;3433;48.730;9.108;2023-03-21T02:57:40;11.20;98.50
6792;DHT22;3433;48.730;9.108;2023-03-21T03:00:10;11.10;98.50
6792;DHT22;3433;48.730;9.108;2023-03-21T03:02:39;11.10;98.50
6792;DHT22;3433;48.730;9.108;2023-03-21T03:05:15;11.10;98.50
6792;DHT22;3433;48.730;9.108;2023-03-21T03:10:56;11.10;98.50
6792;DHT22;3433;48.730;9.108;2023-03-21T03:13:37;11.10;98.60
6792;DHT22;3433;48.730;9.108;2023-03-21T03:16:15;11.10;98.90
6792;DHT22;3433;48.730;9.108;2023-03-21T03:18:50;11.10;98.70
6792;DHT22;3433;48.730;9.108;2023-03-21T03:21:21;11.00;99.00
6792;DHT22;3433;48.730;9.108;2023-03-21T03:23:56;11.00;98.60
6792;DHT22;3433;48.730;9.108;2023-03-21T03:26:28;11.10;98.70
6792;DHT22;3433;48.730;9.108;2023-03-21T03:28:59;11.00;98.80
6792;DHT22;3433;48.730;9.108;2023-03-21T03:31:32;11.00;98.70
6792;DHT22;3433;48.730;9.108;2023-03-21T03:34:02;11.00;98.60
6792;DHT22;3433;48.730;9.108;2023-03-21T03:36:34;11.00;98.60
6792;DHT22;3433;48.730;9.108;2023-03-21T03:39:07;11.00;98.50
6792;DHT22;3433;48.730;9.108;2023-03-21T03:41:40;11.00;98.60
6792;DHT22;3433;48.730;9.108;2023-03-21T03:44:07;11.00;98.60
6792;DHT22;3433;48.730;9.108;2023-03-21T03:46:42;11.00;98.50
6792;DHT22;3433;48.730;9.108;2023-03-21T03:49:12;11.00;98.50
6792;DHT22;3433;48.730;9.108;2023-03-21T03:51:45;10.90;98.50
6792;DHT22;3433;48.730;9.108;2023-03-21T03:54:19;10.90;98.50
6792;DHT22;3433;48.730;9.108;2023-03-21T03:56:48;10.90;98.50
6792;DHT22;3433;48.730;9.108;2023-03-21T03:59:15;11.00;98.60
6792;DHT22;3433;48.730;9.108;2023-03-21T04:01:44;11.00;98.50
6792;DHT22;3433;48.730;9.108;2023-03-21T04:04:10;11.00;98.50
6792;DHT22;3433;48.730;9.108;2023-03-21T04:06:38;10.90;98.60
6792;DHT22;3433;48.730;9.108;2023-03-21T04:09:05;10.90;98.60
6792;DHT22;3433;48.730;9.108;2023-03-21T04:11:34;11.00;98.70
6792;DHT22;3433;48.730;9.108;2023-03-21T04:14:01;10.90;98.60
6792;DHT22;3433;48.730;9.108;2023-03-21T04:16:28;10.90;98.60
6792;DHT22;3433;48.730;9.108;2023-03-21T04:18:56;10.90;98.60
6792;DHT22;3433;48.730;9.108;2023-03-21T04:21:23;10.90;98.60
6792;DHT22;3433;48.730;9.108;2023-03-21T04:23:51;10.90;98.60
6792;DHT22;3433;48.730;9.108;2023-03-21T04:26:19;10.80;98.60
6792;DHT22;3433;48.730;9.108;2023-03-21T04:28:48;10.80;98.60
6792;DHT22;3433;48.730;9.108;2023-03-21T04:31:15;10.80;98.70
6792;DHT22;3433;48.730;9.108;2023-03-21T04:33:42;10.70;98.60
6792;DHT22;3433;48.730;9.108;2023-03-21T04:36:10;10.70;98.60
6792;DHT22;3433;48.730;9.108;2023-03-21T04:38:49;10.70;98.60
6792;DHT22;3433;48.730;9.108;2023-03-21T04:41:16;10.70;98.50
6792;DHT22;3433;48.730;9.108;2023-03-21T04:43:43;10.60;98.40
6792;DHT22;3433;48.730;9.108;2023-03-21T04:46:11;10.60;98.50
6792;DHT22;3433;48.730;9.108;2023-03-21T04:48:38;10.50;98.30
6792;DHT22;3433;48.730;9.108;2023-03-21T04:51:06;10.50;98.30
6792;DHT22;3433;48.730;9.108;2023-03-21T04:53:32;10.40;98.30
6792;DHT22;3433;48.730;9.108;2023-03-21T04:56:00;10.40;98.30
6792;DHT22;3433;48.730;9.108;2023-03-21T04:58:26;10.30;98.10
6792;DHT22;3433;48.730;9.108;2023-03-21T05:00:55;10.30;98.20
6792;DHT22;3433;48.730;9.108;2023-03-21T05:03:23;10.20;98.10
6792;DHT22;3433;48.730;9.108;2023-03-21T05:05:50;10.10;98.10
6792;DHT22;3433;48.730;9.108;2023-03-21T05:08:17;10.10;98.10
6792;DHT22;3433;48.730;9.108;2023-03-21T05:10:44;10.00;98.10
6792;DHT22;3433;48.730;9.108;2023-03-21T05:13:11;10.00;98.00
6792;DHT22;3433;48.730;9.108;2023-03-21T05:15:38;9.90;98.50
6792;DHT22;3433;48.730;9.108;2023-03-21T05:18:05;9.80;98.80
6792;DHT22;3433;48.730;9.108;2023-03-21T05:20:39;9.80;98.50
6792;DHT22;3433;48.730;9.108;2023-03-21T05:23:07;9.70;98.50
6792;DHT22;3433;48.730;9.108;2023-03-21T05:25:35;9.70;98.50
6792;DHT22;3433;48.730;9.108;2023-03-21T05:28:02;9.70;98.50
6792;DHT22;3433;48.730;9.108;2023-03-21T05:30:29;9.70;98.50
6792;DHT22;3433;48.730;9.108;2023-03-21T05:32:57;9.60;98.50
6792;DHT22;3433;48.730;9.108;2023-03-21T05:35:24;9.60;98.60
6792;DHT22;3433;48.730;9.108;2023-03-21T05:37:52;9.60;98.60
6792;DHT22;3433;48.730;9.108;2023-03-21T05:40:19;9.60;98.70
6792;DHT22;3433;48.730;9.108;2023-03-21T05:42:46;9.60;98.70
6792;DHT22;3433;48.730;9.108;2023-03-21T05:45:13;9.60;98.70
6792;DHT22;3433;48.730;9.108;2023-03-21T05:47:41;9.60;98.80
6792;DHT22;3433;48.730;9.108;2023-03-21T05:50:09;9.60;98.80
6792;DHT22;3433;48.730;9.108;2023-03-21T05:52:36;9.60;98.90
6792;DHT22;3433;48.730;9.108;2023-03-21T05:55:05;9.60;99.00
6792;DHT22;3433;48.730;9.108;2023-03-21T05:57:32;9.60;98.90
6792;DHT22;3433;48.730;9.108;2023-03-21T06:00:04;9.70;99.10
6792;DHT22;3433;48.730;9.108;2023-03-21T06:02:31;9.70;99.10
6792;DHT22;3433;48.730;9.108;2023-03-21T06:04:58;9.70;99.10
6792;DHT22;3433;48.730;9.108;2023-03-21T06:07:25;9.70;99.20
6792;DHT22;3433;48.730;9.108;2023-03-21T06:09:52;9.80;99.20
6792;DHT22;3433;48.730;9.108;2023-03-21T06:12:20;9.80;99.20
6792;DHT22;3433;48.730;9.108;2023-03-21T06:14:47;9.80;99.30
6792;DHT22;3433;48.730;9.108;2023-03-21T06:17:14;9.80;99.30
6792;DHT22;3433;48.730;9.108;2023-03-21T06:19:41;9.90;99.30
6792;DHT22;3433;48.730;9.108;2023-03-21T06:22:08;9.90;99.50
6792;DHT22;3433;48.730;9.108;2023-03-21T06:24:35;9.90;99.40
6792;DHT22;3433;48.730;9.108;2023-03-21T06:27:02;10.00;99.00
6792;DHT22;3433;48.730;9.108;2023-03-21T06:29:30;10.00;99.00
6792;DHT22;3433;48.730;9.108;2023-03-21T06:31:57;10.00;98.80
6792;DHT22;3433;48.730;9.108;2023-03-21T06:34:24;10.10;98.90
6792;DHT22;3433;48.730;9.108;2023-03-21T06:36:51;10.00;98.90
6792;DHT22;3433;48.730;9.108;2023-03-21T06:39:19;10.10;99.00
6792;DHT22;3433;48.730;9.108;2023-03-21T06:41:46;10.10;99.00
6792;DHT22;3433;48.730;9.108;2023-03-21T06:44:12;10.10;99.00
6792;DHT22;3433;48.730;9.108;2023-03-21T06:46:41;10.10;99.10
6792;DHT22;3433;48.730;9.108;2023-03-21T06:49:08;10.20;99.20
6792;DHT22;3433;48.730;9.108;2023-03-21T06:51:35;10.20;99.10
6792;DHT22;3433;48.730;9.108;2023-03-21T06:54:02;10.30;99.10
6792;DHT22;3433;48.730;9.108;2023-03-21T06:56:29;10.30;99.10
6792;DHT22;3433;48.730;9.108;2023-03-21T06:58:55;10.40;99.20
6792;DHT22;3433;48.730;9.108;2023-03-21T07:01:22;10.50;99.10
6792;DHT22;3433;48.730;9.108;2023-03-21T07:03:53;10.50;99.20
6792;DHT22;3433;48.730;9.108;2023-03-21T07:06:22;10.60;99.40
6792;DHT22;3433;48.730;9.108;2023-03-21T07:08:51;10.70;99.50
6792;DHT22;3433;48.730;9.108;2023-03-21T07:11:18;10.80;99.50
6792;DHT22;3433;48.730;9.108;2023-03-21T07:13:45;10.90;99.60
6792;DHT22;3433;48.730;9.108;2023-03-21T07:16:13;11.00;99.50
6792;DHT22;3433;48.730;9.108;2023-03-21T07:18:40;11.10;99.50
6792;DHT22;3433;48.730;9.108;2023-03-21T07:21:09;11.30;99.60
6792;DHT22;3433;48.730;9.108;2023-03-21T07:23:36;11.30;99.50
6792;DHT22;3433;48.730;9.108;2023-03-21T07:26:04;11.40;99.30
6792;DHT22;3433;48.730;9.108;2023-03-21T07:28:32;11.60;99.60
6792;DHT22;3433;48.730;9.108;2023-03-21T07:31:01;11.70;99.30
6792;DHT22;3433;48.730;9.108;2023-03-21T07:33:29;11.80;99.30
6792;DHT22;3433;48.730;9.108;2023-03-21T07:35:56;11.90;99.30
6792;DHT22;3433;48.730;9.108;2023-03-21T07:38:25;12.10;99.40
6792;DHT22;3433;48.730;9.108;2023-03-21T07:40:53;12.20;99.30
6792;DHT22;3433;48.730;9.108;2023-03-21T07:43:19;12.40;98.80
6792;DHT22;3433;48.730;9.108;2023-03-21T07:45:46;12.50;98.70
6792;DHT22;3433;48.730;9.108;2023-03-21T07:48:13;12.60;98.80
6792;DHT22;3433;48.730;9.108;2023-03-21T07:50:42;12.60;98.80
6792;DHT22;3433;48.730;9.108;2023-03-21T07:53:09;12.70;98.40
6792;DHT22;3433;48.730;9.108;2023-03-21T07:55:37;12.70;98.20
6792;DHT22;3433;48.730;9.108;2023-03-21T07:58:04;12.80;98.40
6792;DHT22;3433;48.730;9.108;2023-03-21T08:00:31;12.90;98.40
6792;DHT22;3433;48.730;9.108;2023-03-21T08:02:58;12.90;98.50
6792;DHT22;3433;48.730;9.108;2023-03-21T08:05:27;13.00;98.40
6792;DHT22;3433;48.730;9.108;2023-03-21T08:07:55;13.00;98.20
6792;DHT22;3433;48.730;9.108;2023-03-21T08:10:22;13.00;98.50
6792;DHT22;3433;48.730;9.108;2023-03-21T08:12:50;13.20;98.50
6792;DHT22;3433;48.730;9.108;2023-03-21T08:15:17;13.30;98.20
6792;DHT22;3433;48.730;9.108;2023-03-21T08:17:44;13.30;97.90
6792;DHT22;3433;48.730;9.108;2023-03-21T08:20:13;13.50;98.40
6792;DHT22;3433;48.730;9.108;2023-03-21T08:22:41;13.70;97.70
6792;DHT22;3433;48.730;9.108;2023-03-21T08:25:11;13.70;97.60
6792;DHT22;3433;48.730;9.108;2023-03-21T08:27:39;13.70;97.90
6792;DHT22;3433;48.730;9.108;2023-03-21T08:30:10;13.80;97.60
6792;DHT22;3433;48.730;9.108;2023-03-21T08:32:38;13.90;96.10
6792;DHT22;3433;48.730;9.108;2023-03-21T08:35:07;13.90;96.50
6792;DHT22;3433;48.730;9.108;2023-03-21T08:37:35;14.00;95.60
6792;DHT22;3433;48.730;9.108;2023-03-21T08:40:03;14.20;96.30
6792;DHT22;3433;48.730;9.108;2023-03-21T08:42:33;14.40;96.40
6792;DHT22;3433;48.730;9.108;2023-03-21T08:45:00;14.50;96.10
6792;DHT22;3433;48.730;9.108;2023-03-21T08:47:30;14.60;96.00
6792;DHT22;3433;48.730;9.108;2023-03-21T08:49:57;14.70;96.00
6792;DHT22;3433;48.730;9.108;2023-03-21T08:52:24;15.00;96.30
6792;DHT22;3433;48.730;9.108;2023-03-21T08:54:51;15.00;95.30
6792;DHT22;3433;48.730;9.108;2023-03-21T08:57:18;15.00;95.00
6792;DHT22;3433;48.730;9.108;2023-03-21T08:59:45;15.20;95.10
6792;DHT22;3433;48.730;9.108;2023-03-21T09:02:13;15.20;95.40
6792;DHT22;3433;48.730;9.108;2023-03-21T09:04:41;15.30;94.00
6792;DHT22;3433;48.730;9.108;2023-03-21T09:07:09;15.50;94.30
6792;DHT22;3433;48.730;9.108;2023-03-21T09:09:37;15.60;94.40
6792;DHT22;3433;48.730;9.108;2023-03-21T09:12:04;15.60;93.80
6792;DHT22;3433;48.730;9.108;2023-03-21T09:14:31;15.60;92.90
6792;DHT22;3433;48.730;9.108;2023-03-21T09:16:59;15.70;92.80
6792;DHT22;3433;48.730;9.108;2023-03-21T09:19:26;15.70;93.30
6792;DHT22;3433;48.730;9.108;2023-03-21T09:21:55;15.80;93.10
6792;DHT22;3433;48.730;9.108;2023-03-21T09:24:41;16.00;93.10
6792;DHT22;3433;48.730;9.108;2023-03-21T09:27:28;16.10;93.70
6792;DHT22;3433;48.730;9.108;2023-03-21T09:30:17;16.20;93.00
6792;DHT22;3433;48.730;9.108;2023-03-21T09:33:05;16.30;93.20
6792;DHT22;3433;48.730;9.108;2023-03-21T09:35:57;16.50;93.60
6792;DHT22;3433;48.730;9.108;2023-03-21T09:38:47;16.70;93.70
6792;DHT22;3433;48.730;9.108;2023-03-21T09:41:44;16.70;91.20
6792;DHT22;3433;48.730;9.108;2023-03-21T09:44:43;16.90;93.10
6792;DHT22;3433;48.730;9.108;2023-03-21T09:47:38;17.10;92.40
6792;DHT22;3433;48.730;9.108;2023-03-21T09:50:35;16.90;91.50
6792;DHT22;3433;48.730;9.108;2023-03-21T09:53:27;17.00;90.90
6792;DHT22;3433;48.730;9.108;2023-03-21T09:56:17;16.80;91.90
6792;DHT22;3433;48.730;9.108;2023-03-21T09:59:06;17.10;92.20
6792;DHT22;3433;48.730;9.108;2023-03-21T10:01:55;17.30;92.70
6792;DHT22;3433;48.730;9.108;2023-03-21T10:04:45;17.60;92.40
6792;DHT22;3433;48.730;9.108;2023-03-21T10:07:37;17.70;91.70
6792;DHT22;3433;48.730;9.108;2023-03-21T10:10:28;17.50;90.70
6792;DHT22;3433;48.730;9.108;2023-03-21T10:13:21;17.50;88.70
6792;DHT22;3433;48.730;9.108;2023-03-21T10:16:12;17.60;90.70
6792;DHT22;3433;48.730;9.108;2023-03-21T10:19:03;17.70;89.20
6792;DHT22;3433;48.730;9.108;2023-03-21T10:21:55;17.80;90.30
6792;DHT22;3433;48.730;9.108;2023-03-21T10:24:42;18.10;90.50
6792;DHT22;3433;48.730;9.108;2023-03-21T10:27:30;18.20;88.30
6792;DHT22;3433;48.730;9.108;2023-03-21T10:30:28;18.20;90.20
6792;DHT22;3433;48.730;9.108;2023-03-21T10:33:18;18.20;89.10
6792;DHT22;3433;48.730;9.108;2023-03-21T10:36:08;18.20;88.50
6792;DHT22;3433;48.730;9.108;2023-03-21T10:39:02;18.20;87.80
6792;DHT22;3433;48.730;9.108;2023-03-21T10:41:50;18.20;90.30
6792;DHT22;3433;48.730;9.108;2023-03-21T10:44:37;18.40;91.30
6792;DHT22;3433;48.730;9.108;2023-03-21T10:47:28;18.50;91.10
6792;DHT22;3433;48.730;9.108;2023-03-21T10:50:18;18.50;90.60
6792;DHT22;3433;48.730;9.108;2023-03-21T10:53:16;18.30;88.20
6792;DHT22;3433;48.730;9.108;2023-03-21T10:56:08;18.20;89.00
6792;DHT22;3433;48.730;9.108;2023-03-21T10:58:58;18.00;85.60
6792;DHT22;3433;48.730;9.108;2023-03-21T11:01:48;18.10;90.60
6792;DHT22;3433;48.730;9.108;2023-03-21T11:04:37;17.90;88.00
6792;DHT22;3433;48.730;9.108;2023-03-21T11:07:27;18.00;90.00
6792;DHT22;3433;48.730;9.108;2023-03-21T11:10:27;18.00;90.10
6792;DHT22;3433;48.730;9.108;2023-03-21T11:13:17;18.00;89.80
6792;DHT22;3433;48.730;9.108;2023-03-21T11:16:08;18.00;84.00
6792;DHT22;3433;48.730;9.108;2023-03-21T11:18:59;17.90;85.50
6792;DHT22;3433;48.730;9.108;2023-03-21T11:21:48;17.90;85.90
6792;DHT22;3433;48.730;9.108;2023-03-21T11:24:36;17.80;85.20
6792;DHT22;3433;48.730;9.108;2023-03-21T11:27:24;17.70;83.20
6792;DHT22;3433;48.730;9.108;2023-03-21T11:30:20;17.60;84.70
6792;DHT22;3433;48.730;9.108;2023-03-21T11:33:08;17.70;87.80
6792;DHT22;3433;48.730;9.108;2023-03-21T11:36:00;17.70;86.80
6792;DHT22;3433;48.730;9.108;2023-03-21T11:38:51;17.70;89.30
6792;DHT22;3433;48.730;9.108;2023-03-21T11:41:40;17.70;90.20
6792;DHT22;3433;48.730;9.108;2023-03-21T11:44:30;17.60;90.60
6792;DHT22;3433;48.730;9.108;2023-03-21T11:47:18;17.60;89.70
6792;DHT22;3433;48.730;9.108;2023-03-21T11:50:18;17.50;87.80
6792;DHT22;3433;48.730;9.108;2023-03-21T11:53:19;17.40;88.40
6792;DHT22;3433;48.730;9.108;2023-03-21T11:56:21;17.40;90.30
6792;DHT22;3433;48.730;9.108;2023-03-21T11:59:18;17.40;90.40
6792;DHT22;3433;48.730;9.108;2023-03-21T12:02:44;17.50;91.00
6792;DHT22;3433;48.730;9.108;2023-03-21T12:05:42;17.50;90.40
6792;DHT22;3433;48.730;9.108;2023-03-21T12:08:40;17.50;90.40
6792;DHT22;3433;48.730;9.108;2023-03-21T12:11:36;17.40;90.30
6792;DHT22;3433;48.730;9.108;2023-03-21T12:14:32;17.40;89.20
6792;DHT22;3433;48.730;9.108;2023-03-21T12:17:29;17.40;90.20
6792;DHT22;3433;48.730;9.108;2023-03-21T12:20:35;17.30;90.10
6792;DHT22;3433;48.730;9.108;2023-03-21T12:23:40;17.30;88.40
6792;DHT22;3433;48.730;9.108;2023-03-21T12:26:31;17.30;89.50
6792;DHT22;3433;48.730;9.108;2023-03-21T12:29:35;17.30;89.30
6792;DHT22;3433;48.730;9.108;2023-03-21T12:32:36;17.30;90.10
6792;DHT22;3433;48.730;9.108;2023-03-21T12:35:34;17.30;88.60
6792;DHT22;3433;48.730;9.108;2023-03-21T12:38:30;17.40;88.20
6792;DHT22;3433;48.730;9.108;2023-03-21T12:41:23;17.40;85.10
6792;DHT22;3433;48.730;9.108;2023-03-21T12:44:14;17.50;85.40
6792;DHT22;3433;48.730;9.108;2023-03-21T12:47:06;17.50;83.70
6792;DHT22;3433;48.730;9.108;2023-03-21T12:49:56;17.60;82.60
6792;DHT22;3433;48.730;9.108;2023-03-21T12:52:48;17.70;82.30
6792;DHT22;3433;48.730;9.108;2023-03-21T12:55:38;17.70;83.90
6792;DHT22;3433;48.730;9.108;2023-03-21T12:58:28;17.80;82.50
6792;DHT22;3433;48.730;9.108;2023-03-21T13:01:20;17.90;76.90
6792;DHT22;3433;48.730;9.108;2023-03-21T13:04:30;18.00;83.90
6792;DHT22;3433;48.730;9.108;2023-03-21T13:07:21;18.30;81.60
6792;DHT22;3433;48.730;9.108;2023-03-21T13:10:14;18.40;79.60
6792;DHT22;3433;48.730;9.108;2023-03-21T13:13:07;18.50;82.80
6792;DHT22;3433;48.730;9.108;2023-03-21T13:16:03;18.70;85.40
6792;DHT22;3433;48.730;9.108;2023-03-21T13:19:07;18.90;85.20
6792;DHT22;3433;48.730;9.108;2023-03-21T13:22:05;18.80;82.70
6792;DHT22;3433;48.730;9.108;2023-03-21T13:24:57;18.80;84.30
6792;DHT22;3433;48.730;9.108;2023-03-21T13:27:50;18.90;84.90
6792;DHT22;3433;48.730;9.108;2023-03-21T13:30:38;19.10;82.60
6792;DHT22;3433;48.730;9.108;2023-03-21T13:33:28;19.20;79.90
6792;DHT22;3433;48.730;9.108;2023-03-21T13:36:22;19.20;82.60
6792;DHT22;3433;48.730;9.108;2023-03-21T13:39:17;19.10;82.30
6792;DHT22;3433;48.730;9.108;2023-03-21T13:42:05;19.10;84.00
6792;DHT22;3433;48.730;9.108;2023-03-21T13:45:00;19.20;84.20
6792;DHT22;3433;48.730;9.108;2023-03-21T13:47:53;19.10;82.50
6792;DHT22;3433;48.730;9.108;2023-03-21T13:50:52;19.00;81.00
6792;DHT22;3433;48.730;9.108;2023-03-21T13:53:41;18.90;79.60
6792;DHT22;3433;48.730;9.108;2023-03-21T13:56:51;18.70;80.90
6792;DHT22;3433;48.730;9.108;2023-03-21T13:59:40;18.70;79.80
6792;DHT22;3433;48.730;9.108;2023-03-21T14:02:29;18.70;82.00
6792;DHT22;3433;48.730;9.108;2023-03-21T14:05:20;18.60;81.70
6792;DHT22;3433;48.730;9.108;2023-03-21T14:08:14;18.60;83.50
6792;DHT22;3433;48.730;9.108;2023-03-21T14:11:06;18.50;80.10
6792;DHT22;3433;48.730;9.108;2023-03-21T14:13:55;18.40;81.20
6792;DHT22;3433;48.730;9.108;2023-03-21T14:16:45;18.30;76.80
6792;DHT22;3433;48.730;9.108;2023-03-21T14:19:32;18.20;82.60
6792;DHT22;3433;48.730;9.108;2023-03-21T14:22:19;18.30;83.80
6792;DHT22;3433;48.730;9.108;2023-03-21T14:25:10;18.50;83.70
6792;DHT22;3433;48.730;9.108;2023-03-21T14:28:02;18.40;83.40
6792;DHT22;3433;48.730;9.108;2023-03-21T14:30:52;18.20;79.80
6792;DHT22;3433;48.730;9.108;2023-03-21T14:33:41;18.10;82.40
6792;DHT22;3433;48.730;9.108;2023-03-21T14:36:37;18.20;84.20
6792;DHT22;3433;48.730;9.108;2023-03-21T14:39:27;18.20;84.70
6792;DHT22;3433;48.730;9.108;2023-03-21T14:42:15;18.10;83.50
6792;DHT22;3433;48.730;9.108;2023-03-21T14:45:15;18.10;83.50
6792;DHT22;3433;48.730;9.108;2023-03-21T14:48:04;18.10;83.10
6792;DHT22;3433;48.730;9.108;2023-03-21T14:50:53;18.10;85.20
6792;DHT22;3433;48.730;9.108;2023-03-21T14:53:42;18.20;86.20
6792;DHT22;3433;48.730;9.108;2023-03-21T14:56:38;18.30;85.60
6792;DHT22;3433;48.730;9.108;2023-03-21T14:59:28;18.30;85.70
6792;DHT22;3433;48.730;9.108;2023-03-21T15:02:22;18.40;85.80
6792;DHT22;3433;48.730;9.108;2023-03-21T15:05:15;18.40;87.00
6792;DHT22;3433;48.730;9.108;2023-03-21T15:08:07;18.50;87.00
6792;DHT22;3433;48.730;9.108;2023-03-21T15:10:56;18.50;86.70
6792;DHT22;3433;48.730;9.108;2023-03-21T15:13:46;18.60;86.80
6792;DHT22;3433;48.730;9.108;2023-03-21T15:16:35;18.70;85.50
6792;DHT22;3433;48.730;9.108;2023-03-21T15:19:28;18.90;87.60
6792;DHT22;3433;48.730;9.108;2023-03-21T15:22:21;18.90;86.80
6792;DHT22;3433;48.730;9.108;2023-03-21T15:25:15;18.80;84.00
6792;DHT22;3433;48.730;9.108;2023-03-21T15:28:04;18.80;86.80
6792;DHT22;3433;48.730;9.108;2023-03-21T15:30:52;18.90;84.80
6792;DHT22;3433;48.730;9.108;2023-03-21T15:33:39;18.80;85.20
6792;DHT22;3433;48.730;9.108;2023-03-21T15:36:33;18.80;84.40
6792;DHT22;3433;48.730;9.108;2023-03-21T15:39:22;18.70;86.80
6792;DHT22;3433;48.730;9.108;2023-03-21T15:42:26;18.50;87.20
6792;DHT22;3433;48.730;9.108;2023-03-21T15:45:25;18.40;88.20
6792;DHT22;3433;48.730;9.108;2023-03-21T15:48:13;18.30;89.10
6792;DHT22;3433;48.730;9.108;2023-03-21T15:51:02;18.20;88.60
6792;DHT22;3433;48.730;9.108;2023-03-21T15:53:52;18.10;89.20
6792;DHT22;3433;48.730;9.108;2023-03-21T15:56:40;18.00;88.20
6792;DHT22;3433;48.730;9.108;2023-03-21T15:59:33;17.90;89.50
6792;DHT22;3433;48.730;9.108;2023-03-21T16:02:23;17.70;89.20
6792;DHT22;3433;48.730;9.108;2023-03-21T16:05:22;17.60;89.60
6792;DHT22;3433;48.730;9.108;2023-03-21T16:08:19;17.40;89.80
6792;DHT22;3433;48.730;9.108;2023-03-21T16:11:15;17.40;90.00
6792;DHT22;3433;48.730;9.108;2023-03-21T16:14:03;17.30;90.00
6792;DHT22;3433;48.730;9.108;2023-03-21T16:16:50;17.20;90.20
6792;DHT22;3433;48.730;9.108;2023-03-21T16:19:37;17.20;90.20
6792;DHT22;3433;48.730;9.108;2023-03-21T16:22:27;17.10;90.60
6792;DHT22;3433;48.730;9.108;2023-03-21T16:25:19;17.00;90.40
6792;DHT22;3433;48.730;9.108;2023-03-21T16:28:11;16.90;90.50
6792;DHT22;3433;48.730;9.108;2023-03-21T16:31:00;16.80;90.50
6792;DHT22;3433;48.730;9.108;2023-03-21T16:33:48;16.80;90.90
6792;DHT22;3433;48.730;9.108;2023-03-21T16:36:37;16.70;90.60
6792;DHT22;3433;48.730;9.108;2023-03-21T16:39:25;16.60;90.70
6792;DHT22;3433;48.730;9.108;2023-03-21T16:42:12;16.60;90.80
6792;DHT22;3433;48.730;9.108;2023-03-21T16:45:01;16.50;90.80
6792;DHT22;3433;48.730;9.108;2023-03-21T16:47:48;16.50;90.80
6792;DHT22;3433;48.730;9.108;2023-03-21T16:50:39;16.40;90.80
6792;DHT22;3433;48.730;9.108;2023-03-21T16:53:27;16.40;90.90
6792;DHT22;3433;48.730;9.108;2023-03-21T16:56:16;16.30;90.80
6792;DHT22;3433;48.730;9.108;2023-03-21T16:59:05;16.20;91.00
6792;DHT22;3433;48.730;9.108;2023-03-21T17:01:54;16.10;90.90
6792;DHT22;3433;48.730;9.108;2023-03-21T17:04:41;16.10;91.00
6792;DHT22;3433;48.730;9.108;2023-03-21T17:07:29;16.00;91.30
6792;DHT22;3433;48.730;9.108;2023-03-21T17:10:18;16.00;91.20
6792;DHT22;3433;48.730;9.108;2023-03-21T17:13:05;15.90;91.40
6792;DHT22;3433;48.730;9.108;2023-03-21T17:15:53;15.90;91.10
6792;DHT22;3433;48.730;9.108;2023-03-21T17:18:41;15.80;91.10
6792;DHT22;3433;48.730;9.108;2023-03-21T17:21:29;15.70;91.40
6792;DHT22;3433;48.730;9.108;2023-03-21T17:24:16;15.70;91.20
6792;DHT22;3433;48.730;9.108;2023-03-21T17:27:06;15.70;91.20
6792;DHT22;3433;48.730;9.108;2023-03-21T17:29:53;15.60;91.30
6792;DHT22;3433;48.730;9.108;2023-03-21T17:32:43;15.60;91.30
6792;DHT22;3433;48.730;9.108;2023-03-21T17:35:31;15.60;91.40